createdAt,value
2022-12-18T00:00:16.631Z,17.17
2022-12-18T00:00:48.019Z,17.15
2022-12-18T00:01:19.525Z,17.17
2022-12-18T00:01:51.209Z,17.16
2022-12-18T00:02:22.666Z,17.17
2022-12-18T00:02:54.302Z,17.17
2022-12-18T00:03:25.954Z,17.16
2022-12-18T00:04:04.942Z,17.16
2022-12-18T00:04:36.468Z,17.16
2022-12-18T00:05:07.865Z,17.15
2022-12-18T00:05:39.275Z,17.16
2022-12-18T00:06:10.668Z,17.14
2022-12-18T00:06:42.055Z,17.14
2022-12-18T00:07:13.743Z,17.14
2022-12-18T00:07:45.130Z,17.14
2022-12-18T00:08:16.521Z,17.16
2022-12-18T00:08:47.929Z,17.14
2022-12-18T00:09:19.331Z,17.13
2022-12-18T00:09:50.724Z,17.15
2022-12-18T00:10:22.115Z,17.15
2022-12-18T00:10:53.519Z,17.13
2022-12-18T00:11:25.507Z,17.11
2022-12-18T00:11:56.903Z,17.13
2022-12-18T00:12:29.999Z,17.12
2022-12-18T00:13:03.893Z,17.11
2022-12-18T00:13:38.358Z,17.11
2022-12-18T00:14:10.032Z,17.12
2022-12-18T00:14:41.659Z,17.12
2022-12-18T00:15:13.083Z,17.11
2022-12-18T00:15:44.542Z,17.09
2022-12-18T00:16:16.029Z,17.10
2022-12-18T00:16:47.475Z,17.09
2022-12-18T00:17:18.871Z,17.08
2022-12-18T00:17:50.382Z,17.09
2022-12-18T00:18:21.771Z,17.07
2022-12-18T00:18:53.183Z,17.08
2022-12-18T00:19:24.571Z,17.07
2022-12-18T00:19:55.955Z,17.08
2022-12-18T00:20:27.352Z,17.07
2022-12-18T00:20:58.750Z,17.09
2022-12-18T00:21:30.133Z,17.09
2022-12-18T00:22:01.534Z,17.08
2022-12-18T00:22:32.933Z,17.07
2022-12-18T00:23:04.423Z,17.05
2022-12-18T00:23:36.087Z,17.06
2022-12-18T00:24:07.741Z,17.08
2022-12-18T00:24:39.156Z,17.07
2022-12-18T00:25:10.572Z,17.07
2022-12-18T00:25:42.031Z,17.06
2022-12-18T00:26:13.468Z,17.04
2022-12-18T00:26:44.855Z,17.05
2022-12-18T00:27:16.263Z,17.04
2022-12-18T00:27:47.675Z,17.04
2022-12-18T00:28:19.195Z,17.04
2022-12-18T00:28:50.593Z,17.04
2022-12-18T00:29:21.980Z,17.04
2022-12-18T00:29:53.371Z,17.03
2022-12-18T00:30:24.782Z,17.02
2022-12-18T00:30:56.165Z,17.04
2022-12-18T00:31:27.636Z,17.03
2022-12-18T00:31:59.083Z,17.01
2022-12-18T00:32:30.530Z,17.03
2022-12-18T00:33:02.010Z,17.02
2022-12-18T00:33:33.429Z,17.03
2022-12-18T00:34:04.812Z,17.01
2022-12-18T00:34:36.216Z,17.02
2022-12-18T00:35:07.601Z,17.02
2022-12-18T00:35:38.999Z,17.01
2022-12-18T00:36:10.407Z,17.01
2022-12-18T00:36:41.814Z,17.01
2022-12-18T00:37:18.283Z,17.02
2022-12-18T00:37:51.356Z,17.01
2022-12-18T00:38:22.859Z,17.01
2022-12-18T00:38:54.286Z,17.01
2022-12-18T00:39:25.671Z,17.01
2022-12-18T00:39:57.054Z,17.01
2022-12-18T00:40:28.443Z,16.99
2022-12-18T00:40:59.851Z,16.99
2022-12-18T00:41:31.245Z,16.99
2022-12-18T00:42:02.660Z,17.00
2022-12-18T00:42:34.070Z,17.00
2022-12-18T00:43:05.454Z,16.98
2022-12-18T00:43:37.299Z,16.99
2022-12-18T00:44:09.157Z,16.95
2022-12-18T00:44:40.571Z,16.95
2022-12-18T00:45:13.174Z,16.96
2022-12-18T00:45:44.823Z,16.98
2022-12-18T00:46:16.449Z,16.97
2022-12-18T00:46:47.911Z,16.95
2022-12-18T00:47:19.298Z,16.96
2022-12-18T00:47:50.691Z,16.95
2022-12-18T00:48:22.083Z,16.95
2022-12-18T00:48:53.475Z,16.96
2022-12-18T00:49:24.950Z,16.96
2022-12-18T00:49:56.342Z,16.97
2022-12-18T00:50:27.725Z,16.94
2022-12-18T00:50:59.127Z,16.95
2022-12-18T00:51:30.518Z,16.95
2022-12-18T00:52:01.902Z,16.94
2022-12-18T00:52:33.311Z,16.95
2022-12-18T00:53:04.811Z,16.95
2022-12-18T00:53:36.541Z,16.95
2022-12-18T00:54:08.154Z,16.94
2022-12-18T00:54:39.543Z,16.94
2022-12-18T00:55:10.929Z,16.95
2022-12-18T00:55:42.327Z,16.94
2022-12-18T00:56:13.719Z,16.92
2022-12-18T00:56:49.481Z,16.92
2022-12-18T00:57:21.176Z,16.92
2022-12-18T00:57:52.561Z,16.92
2022-12-18T00:58:24.096Z,16.92
2022-12-18T00:58:55.487Z,16.92
2022-12-18T00:59:26.906Z,16.91
2022-12-18T00:59:58.298Z,16.92
2022-12-18T01:00:29.707Z,16.91
2022-12-18T01:01:01.141Z,16.90
2022-12-18T01:01:32.678Z,16.90
2022-12-18T01:02:04.247Z,16.90
2022-12-18T01:02:35.857Z,16.91
2022-12-18T01:03:07.350Z,16.89
2022-12-18T01:03:39.159Z,16.89
2022-12-18T01:04:12.233Z,16.89
2022-12-18T01:04:43.614Z,16.89
2022-12-18T01:05:15.024Z,16.89
2022-12-18T01:05:46.425Z,16.88
2022-12-18T01:06:17.811Z,16.87
2022-12-18T01:06:49.210Z,16.88
2022-12-18T01:07:20.615Z,16.87
2022-12-18T01:07:52.021Z,16.88
2022-12-18T01:08:23.411Z,16.88
2022-12-18T01:08:55.070Z,16.86
2022-12-18T01:09:26.455Z,16.87
2022-12-18T01:09:57.856Z,16.87
2022-12-18T01:10:29.246Z,16.83
2022-12-18T01:11:00.638Z,16.84
2022-12-18T01:11:32.022Z,16.82
2022-12-18T01:12:03.424Z,16.82
2022-12-18T01:12:34.805Z,16.85
2022-12-18T01:13:06.191Z,16.82
2022-12-18T01:13:37.877Z,16.83
2022-12-18T01:14:09.548Z,16.83
2022-12-18T01:14:40.951Z,16.85
2022-12-18T01:15:12.337Z,16.81
2022-12-18T01:15:43.723Z,16.82
2022-12-18T01:16:15.156Z,16.82
2022-12-18T01:16:46.634Z,16.83
2022-12-18T01:17:18.072Z,16.82
2022-12-18T01:17:49.477Z,16.82
2022-12-18T01:18:20.861Z,16.83
2022-12-18T01:18:52.237Z,16.82
2022-12-18T01:19:23.704Z,16.82
2022-12-18T01:19:55.115Z,16.81
2022-12-18T01:20:26.504Z,16.80
2022-12-18T01:20:57.897Z,16.81
2022-12-18T01:21:29.289Z,16.76
2022-12-18T01:22:00.675Z,16.77
2022-12-18T01:22:32.068Z,16.79
2022-12-18T01:23:03.463Z,16.80
2022-12-18T01:23:35.006Z,16.76
2022-12-18T01:24:06.518Z,16.79
2022-12-18T01:24:37.984Z,16.79
2022-12-18T01:25:09.393Z,16.80
2022-12-18T01:25:40.780Z,16.80
2022-12-18T01:26:12.163Z,16.80
2022-12-18T01:26:43.549Z,16.80
2022-12-18T01:27:14.942Z,16.80
2022-12-18T01:27:46.331Z,16.79
2022-12-18T01:28:17.723Z,16.77
2022-12-18T01:28:49.122Z,16.77
2022-12-18T01:29:20.507Z,16.76
2022-12-18T01:29:52.042Z,16.77
2022-12-18T01:30:23.630Z,16.77
2022-12-18T01:30:55.022Z,16.76
2022-12-18T01:31:26.476Z,16.76
2022-12-18T01:31:57.924Z,16.75
2022-12-18T01:32:29.338Z,16.76
2022-12-18T01:33:00.718Z,16.75
2022-12-18T01:33:32.107Z,16.74
2022-12-18T01:34:03.508Z,16.74
2022-12-18T01:34:34.897Z,16.74
2022-12-18T01:35:06.338Z,16.74
2022-12-18T01:35:37.731Z,16.73
2022-12-18T01:36:09.140Z,16.71
2022-12-18T01:36:40.530Z,16.71
2022-12-18T01:37:11.919Z,16.70
2022-12-18T01:37:43.306Z,16.73
2022-12-18T01:38:14.690Z,16.73
2022-12-18T01:38:46.240Z,16.73
2022-12-18T01:39:17.631Z,16.72
2022-12-18T01:39:49.039Z,16.73
2022-12-18T01:40:20.558Z,16.71
2022-12-18T01:40:51.943Z,16.71
2022-12-18T01:41:23.350Z,16.73
2022-12-18T01:41:54.730Z,16.72
2022-12-18T01:42:26.135Z,16.72
2022-12-18T01:42:57.534Z,16.72
2022-12-18T01:43:28.931Z,16.72
2022-12-18T01:44:00.322Z,16.71
2022-12-18T01:44:31.706Z,16.70
2022-12-18T01:45:03.103Z,16.70
2022-12-18T01:45:34.604Z,16.70
2022-12-18T01:46:06.115Z,16.70
2022-12-18T01:46:37.511Z,16.69
2022-12-18T01:47:08.899Z,16.70
2022-12-18T01:47:40.302Z,16.71
2022-12-18T01:48:11.705Z,16.70
2022-12-18T01:48:43.088Z,16.70
2022-12-18T01:49:14.568Z,16.68
2022-12-18T01:49:45.955Z,16.70
2022-12-18T01:50:17.369Z,16.70
2022-12-18T01:50:48.877Z,16.69
2022-12-18T01:51:20.271Z,16.68
2022-12-18T01:51:52.175Z,16.67
2022-12-18T01:52:23.567Z,16.67
2022-12-18T01:52:54.979Z,16.67
2022-12-18T01:53:26.380Z,16.67
2022-12-18T01:53:57.792Z,16.65
2022-12-18T01:54:29.184Z,16.68
2022-12-18T01:55:00.601Z,16.67
2022-12-18T01:55:31.991Z,16.68
2022-12-18T01:56:03.451Z,16.67
2022-12-18T01:56:34.845Z,16.66
2022-12-18T01:57:06.260Z,16.67
2022-12-18T01:57:37.676Z,16.65
2022-12-18T01:58:09.058Z,16.66
2022-12-18T01:58:40.470Z,16.67
2022-12-18T01:59:11.961Z,16.62
2022-12-18T01:59:43.359Z,16.63
2022-12-18T02:00:14.769Z,16.63
2022-12-18T02:00:46.206Z,16.62
2022-12-18T02:01:17.922Z,16.63
2022-12-18T02:01:49.535Z,16.61
2022-12-18T02:02:21.093Z,16.62
2022-12-18T02:02:52.765Z,16.64
2022-12-18T02:03:24.452Z,16.62
2022-12-18T02:03:55.859Z,16.59
2022-12-18T02:04:27.364Z,16.61
2022-12-18T02:04:58.798Z,16.62
2022-12-18T02:05:30.200Z,16.64
2022-12-18T02:06:01.618Z,16.60
2022-12-18T02:06:33.101Z,16.58
2022-12-18T02:07:04.489Z,16.60
2022-12-18T02:07:35.895Z,16.60
2022-12-18T02:08:07.315Z,16.59
2022-12-18T02:08:38.698Z,16.60
2022-12-18T02:09:10.101Z,16.58
2022-12-18T02:09:41.509Z,16.59
2022-12-18T02:10:12.923Z,16.58
2022-12-18T02:10:44.331Z,16.58
2022-12-18T02:11:15.737Z,16.57
2022-12-18T02:11:47.270Z,16.58
2022-12-18T02:12:18.679Z,16.58
2022-12-18T02:12:50.072Z,16.55
2022-12-18T02:13:21.949Z,16.57
2022-12-18T02:13:53.345Z,16.57
2022-12-18T02:14:24.743Z,16.58
2022-12-18T02:14:56.127Z,16.57
2022-12-18T02:15:27.516Z,16.58
2022-12-18T02:15:58.930Z,16.56
2022-12-18T02:16:30.354Z,16.54
2022-12-18T02:17:02.034Z,16.56
2022-12-18T02:17:33.479Z,16.55
2022-12-18T02:18:04.868Z,16.53
2022-12-18T02:18:36.251Z,16.55
2022-12-18T02:19:07.674Z,16.53
2022-12-18T02:19:39.077Z,16.55
2022-12-18T02:20:10.479Z,16.54
2022-12-18T02:20:41.880Z,16.53
2022-12-18T02:21:13.266Z,16.52
2022-12-18T02:21:45.341Z,16.51
2022-12-18T02:22:16.818Z,16.53
2022-12-18T02:22:48.207Z,16.55
2022-12-18T02:23:19.617Z,16.54
2022-12-18T02:23:50.999Z,16.54
2022-12-18T02:24:22.398Z,16.52
2022-12-18T02:24:53.806Z,16.54
2022-12-18T02:25:25.199Z,16.54
2022-12-18T02:25:56.587Z,16.54
2022-12-18T02:26:27.973Z,16.51
2022-12-18T02:26:59.366Z,16.50
2022-12-18T02:27:30.983Z,16.52
2022-12-18T02:28:02.365Z,16.50
2022-12-18T02:28:33.753Z,16.48
2022-12-18T02:29:05.140Z,16.47
2022-12-18T02:29:36.522Z,16.48
2022-12-18T02:30:07.907Z,16.49
2022-12-18T02:30:40.628Z,16.48
2022-12-18T02:31:12.906Z,16.51
2022-12-18T02:31:44.319Z,16.50
2022-12-18T02:32:15.712Z,16.50
2022-12-18T02:32:47.222Z,16.50
2022-12-18T02:33:18.603Z,16.47
2022-12-18T02:33:49.991Z,16.44
2022-12-18T02:34:21.382Z,16.42
2022-12-18T02:34:52.779Z,16.41
2022-12-18T02:35:24.183Z,16.42
2022-12-18T02:35:55.566Z,16.44
2022-12-18T02:36:26.975Z,16.45
2022-12-18T02:36:58.359Z,16.45
2022-12-18T02:37:29.753Z,16.45
2022-12-18T02:38:01.265Z,16.45
2022-12-18T02:38:32.645Z,16.45
2022-12-18T02:39:04.036Z,16.45
2022-12-18T02:39:35.431Z,16.45
2022-12-18T02:40:06.838Z,16.45
2022-12-18T02:40:38.231Z,16.45
2022-12-18T02:41:09.614Z,16.44
2022-12-18T02:41:41.008Z,16.41
2022-12-18T02:42:12.406Z,16.42
2022-12-18T02:42:43.806Z,16.41
2022-12-18T02:43:15.216Z,16.41
2022-12-18T02:43:46.608Z,16.40
2022-12-18T02:44:17.994Z,16.41
2022-12-18T02:44:49.378Z,16.40
2022-12-18T02:45:20.762Z,16.41
2022-12-18T02:45:52.191Z,16.38
2022-12-18T02:46:23.612Z,16.40
2022-12-18T02:46:55.125Z,16.40
2022-12-18T02:47:26.514Z,16.39
2022-12-18T02:47:57.899Z,16.38
2022-12-18T02:48:29.292Z,16.39
2022-12-18T02:49:00.846Z,16.38
2022-12-18T02:49:32.229Z,16.39
2022-12-18T02:50:03.633Z,16.38
2022-12-18T02:50:35.051Z,16.39
2022-12-18T02:51:06.447Z,16.38
2022-12-18T02:51:37.839Z,16.38
2022-12-18T02:52:09.231Z,16.36
2022-12-18T02:52:40.683Z,16.37
2022-12-18T02:53:12.079Z,16.37
2022-12-18T02:53:43.474Z,16.37
2022-12-18T02:54:14.866Z,16.37
2022-12-18T02:54:46.215Z,16.35
2022-12-18T02:55:17.627Z,16.35
2022-12-18T02:55:49.014Z,16.32
2022-12-18T02:56:20.401Z,16.36
2022-12-18T02:56:51.795Z,16.33
2022-12-18T02:57:23.208Z,16.33
2022-12-18T02:57:54.739Z,16.35
2022-12-18T02:58:26.132Z,16.35
2022-12-18T02:58:57.547Z,16.36
2022-12-18T02:59:28.962Z,16.36
2022-12-18T03:00:00.350Z,16.36
2022-12-18T03:00:31.735Z,16.33
2022-12-18T03:01:03.244Z,16.32
2022-12-18T03:01:34.792Z,16.30
2022-12-18T03:02:06.538Z,16.31
2022-12-18T03:02:38.159Z,16.31
2022-12-18T03:03:09.756Z,16.33
2022-12-18T03:03:41.683Z,16.31
2022-12-18T03:04:13.391Z,16.31
2022-12-18T03:04:44.784Z,16.32
2022-12-18T03:05:16.184Z,16.31
2022-12-18T03:05:47.576Z,16.30
2022-12-18T03:06:19.033Z,16.30
2022-12-18T03:06:50.419Z,16.26
2022-12-18T03:07:21.811Z,16.28
2022-12-18T03:07:53.205Z,16.28
2022-12-18T03:08:24.907Z,16.28
2022-12-18T03:08:56.295Z,16.28
2022-12-18T03:09:27.707Z,16.26
2022-12-18T03:09:59.709Z,16.27
2022-12-18T03:10:31.098Z,16.27
2022-12-18T03:11:02.492Z,16.26
2022-12-18T03:11:33.899Z,16.26
2022-12-18T03:12:05.286Z,16.26
2022-12-18T03:12:36.677Z,16.26
2022-12-18T03:13:08.057Z,16.25
2022-12-18T03:13:40.265Z,16.25
2022-12-18T03:14:11.938Z,16.25
2022-12-18T03:14:43.340Z,16.24
2022-12-18T03:15:17.618Z,16.25
2022-12-18T03:15:49.425Z,16.22
2022-12-18T03:16:20.839Z,16.21
2022-12-18T03:16:52.350Z,16.23
2022-12-18T03:17:23.778Z,16.22
2022-12-18T03:17:55.204Z,16.22
2022-12-18T03:18:26.601Z,16.22
2022-12-18T03:18:58.006Z,16.19
2022-12-18T03:19:29.391Z,16.22
2022-12-18T03:20:00.782Z,16.21
2022-12-18T03:20:32.178Z,16.21
2022-12-18T03:21:03.571Z,16.19
2022-12-18T03:21:34.953Z,16.21
2022-12-18T03:22:06.353Z,16.20
2022-12-18T03:22:37.738Z,16.19
2022-12-18T03:23:09.211Z,16.20
2022-12-18T03:23:40.993Z,16.18
2022-12-18T03:24:12.633Z,16.18
2022-12-18T03:24:44.039Z,16.18
2022-12-18T03:25:15.444Z,16.16
2022-12-18T03:25:46.849Z,16.18
2022-12-18T03:26:18.257Z,16.17
2022-12-18T03:26:49.653Z,16.17
2022-12-18T03:27:21.063Z,16.16
2022-12-18T03:27:52.471Z,16.16
2022-12-18T03:28:23.994Z,16.16
2022-12-18T03:28:55.395Z,16.16
2022-12-18T03:29:26.792Z,16.15
2022-12-18T03:29:58.188Z,16.16
2022-12-18T03:30:29.655Z,16.13
2022-12-18T03:31:01.141Z,16.13
2022-12-18T03:31:32.596Z,16.10
2022-12-18T03:32:03.987Z,16.13
2022-12-18T03:32:35.374Z,16.13
2022-12-18T03:33:07.231Z,16.13
2022-12-18T03:33:38.953Z,16.13
2022-12-18T03:34:10.690Z,16.13
2022-12-18T03:34:42.074Z,16.12
2022-12-18T03:35:13.483Z,16.13
2022-12-18T03:35:44.890Z,16.13
2022-12-18T03:36:16.299Z,16.12
2022-12-18T03:36:47.706Z,16.12
2022-12-18T03:37:19.099Z,16.11
2022-12-18T03:37:50.490Z,16.10
2022-12-18T03:38:21.895Z,16.08
2022-12-18T03:38:53.341Z,16.06
2022-12-18T03:39:24.817Z,16.09
2022-12-18T03:39:56.231Z,16.09
2022-12-18T03:40:27.614Z,16.09
2022-12-18T03:40:58.997Z,16.10
2022-12-18T03:41:30.383Z,16.10
2022-12-18T03:42:01.807Z,16.09
2022-12-18T03:42:33.222Z,16.09
2022-12-18T03:43:04.637Z,16.10
2022-12-18T03:43:36.286Z,16.10
2022-12-18T03:44:08.027Z,16.09
2022-12-18T03:44:39.409Z,16.08
2022-12-18T03:45:10.797Z,16.09
2022-12-18T03:45:42.264Z,16.07
2022-12-18T03:46:13.711Z,16.08
2022-12-18T03:46:45.146Z,16.08
2022-12-18T03:47:16.540Z,16.08
2022-12-18T03:47:47.930Z,16.08
2022-12-18T03:48:19.338Z,16.06
2022-12-18T03:48:50.727Z,16.04
2022-12-18T03:49:22.493Z,16.04
2022-12-18T03:49:53.880Z,16.03
2022-12-18T03:50:25.268Z,16.02
2022-12-18T03:50:56.673Z,16.04
2022-12-18T03:51:28.082Z,16.05
2022-12-18T03:51:59.480Z,16.04
2022-12-18T03:52:30.888Z,16.04
2022-12-18T03:53:02.286Z,15.99
2022-12-18T03:53:33.694Z,15.98
2022-12-18T03:54:05.104Z,15.99
2022-12-18T03:54:36.537Z,15.99
2022-12-18T03:55:07.921Z,15.97
2022-12-18T03:55:39.311Z,16.00
2022-12-18T03:56:10.794Z,16.00
2022-12-18T03:56:42.226Z,16.01
2022-12-18T03:57:13.611Z,16.01
2022-12-18T03:57:44.999Z,15.99
2022-12-18T03:58:16.407Z,15.98
2022-12-18T03:58:47.805Z,15.97
2022-12-18T03:59:19.346Z,15.99
2022-12-18T03:59:50.730Z,15.96
2022-12-18T04:00:22.134Z,15.98
2022-12-18T04:00:53.541Z,15.95
2022-12-18T04:01:25.007Z,15.96
2022-12-18T04:01:56.567Z,15.98
2022-12-18T04:02:28.058Z,15.95
2022-12-18T04:02:59.506Z,15.96
2022-12-18T04:03:30.955Z,15.94
2022-12-18T04:04:02.449Z,15.93
2022-12-18T04:04:33.910Z,15.93
2022-12-18T04:05:05.314Z,15.94
2022-12-18T04:05:36.704Z,15.94
2022-12-18T04:06:08.090Z,15.95
2022-12-18T04:06:39.481Z,15.95
2022-12-18T04:07:10.896Z,15.94
2022-12-18T04:07:42.310Z,15.92
2022-12-18T04:08:13.704Z,15.92
2022-12-18T04:08:45.093Z,15.94
2022-12-18T04:09:16.493Z,15.92
2022-12-18T04:09:48.012Z,15.92
2022-12-18T04:10:19.398Z,15.92
2022-12-18T04:10:50.791Z,15.87
2022-12-18T04:11:22.197Z,15.88
2022-12-18T04:11:53.578Z,15.88
2022-12-18T04:12:24.963Z,15.87
2022-12-18T04:12:56.376Z,15.90
2022-12-18T04:13:27.787Z,15.89
2022-12-18T04:13:59.195Z,15.86
2022-12-18T04:14:30.586Z,15.86
2022-12-18T04:15:02.054Z,15.83
2022-12-18T04:15:33.527Z,15.85
2022-12-18T04:16:05.013Z,15.86
2022-12-18T04:16:36.575Z,15.88
2022-12-18T04:17:07.967Z,15.88
2022-12-18T04:17:39.360Z,15.90
2022-12-18T04:18:10.767Z,15.89
2022-12-18T04:18:42.152Z,15.89
2022-12-18T04:19:13.545Z,15.87
2022-12-18T04:19:44.993Z,15.87
2022-12-18T04:20:16.387Z,15.86
2022-12-18T04:20:47.788Z,15.84
2022-12-18T04:21:19.179Z,15.86
2022-12-18T04:21:50.591Z,15.85
2022-12-18T04:22:21.980Z,15.84
2022-12-18T04:22:53.367Z,15.82
2022-12-18T04:23:24.795Z,15.80
2022-12-18T04:23:56.184Z,15.82
2022-12-18T04:24:27.591Z,15.83
2022-12-18T04:24:59.043Z,15.84
2022-12-18T04:25:30.455Z,15.84
2022-12-18T04:26:01.847Z,15.84
2022-12-18T04:26:33.254Z,15.84
2022-12-18T04:27:04.654Z,15.83
2022-12-18T04:27:37.714Z,15.81
2022-12-18T04:28:09.101Z,15.83
2022-12-18T04:28:40.485Z,15.82
2022-12-18T04:29:11.884Z,15.81
2022-12-18T04:29:43.285Z,15.81
2022-12-18T04:30:14.759Z,15.81
2022-12-18T04:30:46.170Z,15.80
2022-12-18T04:31:17.618Z,15.81
2022-12-18T04:31:49.080Z,15.82
2022-12-18T04:32:20.476Z,15.80
2022-12-18T04:32:52.473Z,15.80
2022-12-18T04:33:23.957Z,15.79
2022-12-18T04:33:55.344Z,15.80
2022-12-18T04:34:26.752Z,15.77
2022-12-18T04:34:58.162Z,15.76
2022-12-18T04:35:29.587Z,15.76
2022-12-18T04:36:00.974Z,15.74
2022-12-18T04:36:32.377Z,15.75
2022-12-18T04:37:03.867Z,15.75
2022-12-18T04:37:35.274Z,15.73
2022-12-18T04:38:06.664Z,15.74
2022-12-18T04:38:38.083Z,15.75
2022-12-18T04:39:09.508Z,15.74
2022-12-18T04:39:40.897Z,15.74
2022-12-18T04:40:12.285Z,15.75
2022-12-18T04:40:43.808Z,15.75
2022-12-18T04:41:15.189Z,15.74
2022-12-18T04:41:46.574Z,15.73
2022-12-18T04:42:17.967Z,15.73
2022-12-18T04:42:49.380Z,15.74
2022-12-18T04:43:20.899Z,15.73
2022-12-18T04:43:52.355Z,15.70
2022-12-18T04:44:23.751Z,15.70
2022-12-18T04:44:55.140Z,15.70
2022-12-18T04:45:26.559Z,15.71
2022-12-18T04:45:58.102Z,15.72
2022-12-18T04:46:29.555Z,15.72
2022-12-18T04:47:00.986Z,15.72
2022-12-18T04:47:32.389Z,15.71
2022-12-18T04:48:03.773Z,15.71
2022-12-18T04:48:35.169Z,15.69
2022-12-18T04:49:06.656Z,15.70
2022-12-18T04:49:38.062Z,15.70
2022-12-18T04:50:09.443Z,15.70
2022-12-18T04:50:40.849Z,15.66
2022-12-18T04:51:12.425Z,15.68
2022-12-18T04:51:43.840Z,15.68
2022-12-18T04:52:15.242Z,15.67
2022-12-18T04:52:46.638Z,15.67
2022-12-18T04:53:18.045Z,15.67
2022-12-18T04:53:49.457Z,15.66
2022-12-18T04:54:20.866Z,15.65
2022-12-18T04:54:52.258Z,15.64
2022-12-18T04:55:23.667Z,15.64
2022-12-18T04:55:55.074Z,15.64
2022-12-18T04:56:26.581Z,15.63
2022-12-18T04:56:57.983Z,15.64
2022-12-18T04:57:29.374Z,15.60
2022-12-18T04:58:00.763Z,15.62
2022-12-18T04:58:32.151Z,15.61
2022-12-18T04:59:03.557Z,15.63
2022-12-18T04:59:34.950Z,15.63
2022-12-18T05:00:06.361Z,15.65
2022-12-18T05:00:37.747Z,15.63
2022-12-18T05:01:09.175Z,15.64
2022-12-18T05:01:40.681Z,15.61
2022-12-18T05:02:12.191Z,15.62
2022-12-18T05:02:43.791Z,15.60
2022-12-18T05:03:15.329Z,15.62
2022-12-18T05:03:46.788Z,15.62
2022-12-18T05:04:18.259Z,15.61
2022-12-18T05:04:49.854Z,15.60
2022-12-18T05:05:21.263Z,15.60
2022-12-18T05:05:52.654Z,15.60
2022-12-18T05:06:24.194Z,15.58
2022-12-18T05:06:55.584Z,15.58
2022-12-18T05:07:26.993Z,15.58
2022-12-18T05:07:58.382Z,15.58
2022-12-18T05:08:29.766Z,15.58
2022-12-18T05:09:01.187Z,15.58
2022-12-18T05:09:32.576Z,15.60
2022-12-18T05:10:03.978Z,15.59
2022-12-18T05:10:38.339Z,15.57
2022-12-18T05:11:10.006Z,15.58
2022-12-18T05:11:42.027Z,15.56
2022-12-18T05:12:13.417Z,15.56
2022-12-18T05:12:44.810Z,15.55
2022-12-18T05:13:16.190Z,15.55
2022-12-18T05:13:47.600Z,15.55
2022-12-18T05:14:18.987Z,15.56
2022-12-18T05:14:50.393Z,15.55
2022-12-18T05:15:21.791Z,15.54
2022-12-18T05:15:53.218Z,15.53
2022-12-18T05:16:24.678Z,15.54
2022-12-18T05:17:00.709Z,15.52
2022-12-18T05:17:32.531Z,15.53
2022-12-18T05:18:03.916Z,15.51
2022-12-18T05:18:35.301Z,15.54
2022-12-18T05:19:06.696Z,15.52
2022-12-18T05:19:38.107Z,15.52
2022-12-18T05:20:09.491Z,15.52
2022-12-18T05:20:40.966Z,15.53
2022-12-18T05:21:12.357Z,15.50
2022-12-18T05:21:43.764Z,15.51
2022-12-18T05:22:15.606Z,15.49
2022-12-18T05:22:46.997Z,15.50
2022-12-18T05:23:18.403Z,15.50
2022-12-18T05:23:49.829Z,15.50
2022-12-18T05:24:21.228Z,15.49
2022-12-18T05:24:52.703Z,15.47
2022-12-18T05:25:24.118Z,15.49
2022-12-18T05:25:55.526Z,15.47
2022-12-18T05:26:26.918Z,15.46
2022-12-18T05:26:58.333Z,15.46
2022-12-18T05:27:29.723Z,15.49
2022-12-18T05:28:01.130Z,15.47
2022-12-18T05:28:32.538Z,15.47
2022-12-18T05:29:03.932Z,15.47
2022-12-18T05:29:35.320Z,15.47
2022-12-18T05:30:06.728Z,15.46
2022-12-18T05:30:38.115Z,15.46
2022-12-18T05:31:09.644Z,15.45
2022-12-18T05:31:41.142Z,15.44
2022-12-18T05:32:14.141Z,15.43
2022-12-18T05:32:45.549Z,15.44
2022-12-18T05:33:16.940Z,15.42
2022-12-18T05:33:48.327Z,15.44
2022-12-18T05:34:19.711Z,15.44
2022-12-18T05:34:51.113Z,15.44
2022-12-18T05:35:22.514Z,15.45
2022-12-18T05:35:53.903Z,15.44
2022-12-18T05:36:25.389Z,15.42
2022-12-18T05:36:56.780Z,15.42
2022-12-18T05:37:28.186Z,15.42
2022-12-18T05:37:59.575Z,15.41
2022-12-18T05:38:31.203Z,15.38
2022-12-18T05:39:02.610Z,15.40
2022-12-18T05:39:34.016Z,15.41
2022-12-18T05:40:05.409Z,15.41
2022-12-18T05:40:36.816Z,15.40
2022-12-18T05:41:08.204Z,15.40
2022-12-18T05:41:39.670Z,15.39
2022-12-18T05:42:11.050Z,15.38
2022-12-18T05:42:42.454Z,15.40
2022-12-18T05:43:19.358Z,15.39
2022-12-18T05:43:52.476Z,15.38
2022-12-18T05:44:23.888Z,15.38
2022-12-18T05:44:55.292Z,15.38
2022-12-18T05:45:26.712Z,15.37
2022-12-18T05:45:58.135Z,15.38
2022-12-18T05:46:29.593Z,15.38
2022-12-18T05:47:01.132Z,15.39
2022-12-18T05:47:32.549Z,15.37
2022-12-18T05:48:03.947Z,15.37
2022-12-18T05:48:35.340Z,15.37
2022-12-18T05:49:06.733Z,15.35
2022-12-18T05:49:38.143Z,15.35
2022-12-18T05:50:09.560Z,15.35
2022-12-18T05:50:40.951Z,15.35
2022-12-18T05:51:12.353Z,15.36
2022-12-18T05:51:43.747Z,15.35
2022-12-18T05:52:15.267Z,15.33
2022-12-18T05:52:46.652Z,15.36
2022-12-18T05:53:18.042Z,15.36
2022-12-18T05:53:49.433Z,15.36
2022-12-18T05:54:20.819Z,15.34
2022-12-18T05:54:52.221Z,15.35
2022-12-18T05:55:23.612Z,15.34
2022-12-18T05:55:55.339Z,15.33
2022-12-18T05:56:26.745Z,15.34
2022-12-18T05:56:58.143Z,15.31
2022-12-18T05:57:29.611Z,15.32
2022-12-18T05:58:00.999Z,15.32
2022-12-18T05:58:32.412Z,15.33
2022-12-18T05:59:03.815Z,15.33
2022-12-18T05:59:35.205Z,15.31
2022-12-18T06:00:06.595Z,15.32
2022-12-18T06:00:38.000Z,15.30
2022-12-18T06:01:09.386Z,15.31
2022-12-18T06:01:40.879Z,15.30
2022-12-18T06:02:12.518Z,15.31
2022-12-18T06:02:44.159Z,15.30
2022-12-18T06:03:15.667Z,15.29
2022-12-18T06:03:47.551Z,15.30
2022-12-18T06:04:19.249Z,15.29
2022-12-18T06:04:50.650Z,15.29
2022-12-18T06:05:22.052Z,15.29
2022-12-18T06:05:53.463Z,15.28
2022-12-18T06:06:24.855Z,15.27
2022-12-18T06:06:56.252Z,15.28
2022-12-18T06:07:27.660Z,15.27
2022-12-18T06:07:59.172Z,15.26
2022-12-18T06:08:30.563Z,15.26
2022-12-18T06:09:02.063Z,15.28
2022-12-18T06:09:33.453Z,15.27
2022-12-18T06:10:04.838Z,15.27
2022-12-18T06:10:36.306Z,15.27
2022-12-18T06:11:07.695Z,15.25
2022-12-18T06:11:39.091Z,15.24
2022-12-18T06:12:10.481Z,15.25
2022-12-18T06:12:41.866Z,15.25
2022-12-18T06:13:13.640Z,15.23
2022-12-18T06:13:45.022Z,15.24
2022-12-18T06:14:16.405Z,15.24
2022-12-18T06:14:47.936Z,15.21
2022-12-18T06:15:19.323Z,15.23
2022-12-18T06:15:50.785Z,15.23
2022-12-18T06:16:22.263Z,15.23
2022-12-18T06:16:53.659Z,15.23
2022-12-18T06:17:25.052Z,15.22
2022-12-18T06:17:56.457Z,15.23
2022-12-18T06:18:27.881Z,15.24
2022-12-18T06:18:59.275Z,15.22
2022-12-18T06:19:31.320Z,15.20
2022-12-18T06:20:02.711Z,15.22
2022-12-18T06:20:34.273Z,15.22
2022-12-18T06:21:05.696Z,15.21
2022-12-18T06:21:37.083Z,15.20
2022-12-18T06:22:08.493Z,15.21
2022-12-18T06:22:39.880Z,15.20
2022-12-18T06:23:11.297Z,15.18
2022-12-18T06:23:43.025Z,15.18
2022-12-18T06:24:14.583Z,15.18
2022-12-18T06:24:46.014Z,15.18
2022-12-18T06:25:17.418Z,15.19
2022-12-18T06:25:48.802Z,15.18
2022-12-18T06:26:24.659Z,15.18
2022-12-18T06:26:59.140Z,15.17
2022-12-18T06:27:30.536Z,15.18
2022-12-18T06:28:01.942Z,15.17
2022-12-18T06:28:33.338Z,15.17
2022-12-18T06:29:04.827Z,15.15
2022-12-18T06:29:36.242Z,15.15
2022-12-18T06:30:07.705Z,15.16
2022-12-18T06:30:39.128Z,15.15
2022-12-18T06:31:10.596Z,15.16
2022-12-18T06:31:42.083Z,15.16
2022-12-18T06:32:13.497Z,15.14
2022-12-18T06:32:44.911Z,15.13
2022-12-18T06:33:19.197Z,15.14
2022-12-18T06:33:50.582Z,15.15
2022-12-18T06:34:22.159Z,15.13
2022-12-18T06:34:53.568Z,15.13
2022-12-18T06:35:24.983Z,15.11
2022-12-18T06:36:00.908Z,15.12
2022-12-18T06:36:32.660Z,15.12
2022-12-18T06:37:04.050Z,15.10
2022-12-18T06:37:35.440Z,15.08
2022-12-18T06:38:06.857Z,15.10
2022-12-18T06:38:38.606Z,15.09
2022-12-18T06:39:10.263Z,15.09
2022-12-18T06:39:41.760Z,15.09
2022-12-18T06:40:13.164Z,15.08
2022-12-18T06:40:44.554Z,15.08
2022-12-18T06:41:15.970Z,15.07
2022-12-18T06:41:47.354Z,15.05
2022-12-18T06:42:18.744Z,15.05
2022-12-18T06:42:50.132Z,15.04
2022-12-18T06:43:21.529Z,15.06
2022-12-18T06:43:56.804Z,15.03
2022-12-18T06:44:29.615Z,15.04
2022-12-18T06:45:01.003Z,15.04
2022-12-18T06:45:32.439Z,15.03
2022-12-18T06:46:03.885Z,15.02